Time;durP1;ratioP1;P1;durP2;ratioP2;P2;SDS_P1;SDS_P2;PMS_P1;PMS_P2;Temp;Humidity;BMP_temperature;BMP_pressure;BME280_temperature;BME280_humidity;BME280_pressure;Samples;Min_cycle;Max_cycle;Signal;HPM_P1;HPM_P2
2023/06/18 00:00:54;;;;;;;17.13;12.10;;;13.90;58.80;;;;;;2095620;28;20219;-66
2023/06/18 00:01:55;;;;;;;15.18;11.07;;;13.90;58.90;;;;;;2095975;28;20219;-66
2023/06/18 00:02:56;;;;;;;16.20;10.17;;;13.90;59.10;;;;;;2095379;28;20222;-66
2023/06/18 00:03:56;;;;;;;14.60;9.67;;;13.90;59.30;;;;;;2087761;28;20229;-66
2023/06/18 00:04:57;;;;;;;21.40;13.07;;;13.90;59.50;;;;;;2087734;28;20212;-66
2023/06/18 00:06:00;;;;;;;17.20;12.20;;;13.80;59.60;;;;;;2097172;28;20230;-66
2023/06/18 00:07:00;;;;;;;14.65;10.07;;;13.70;59.90;;;;;;2088796;28;20189;-65
2023/06/18 00:08:01;;;;;;;18.03;11.07;;;13.70;60.00;;;;;;2089400;28;20257;-66
2023/06/18 00:09:02;;;;;;;17.97;12.63;;;13.80;60.00;;;;;;2096775;28;20183;-66
2023/06/18 00:10:04;;;;;;;22.27;14.25;;;13.70;59.80;;;;;;2081051;28;20192;-66
2023/06/18 00:11:05;;;;;;;20.27;13.25;;;13.70;59.90;;;;;;2081104;28;20189;-65
2023/06/18 00:12:06;;;;;;;19.60;13.17;;;13.70;59.80;;;;;;2097108;28;20190;-66
2023/06/18 00:13:08;;;;;;;17.65;12.32;;;13.70;60.00;;;;;;2097892;28;20176;-66
2023/06/18 00:14:08;;;;;;;16.15;11.73;;;13.70;60.10;;;;;;2103046;28;20294;-65
2023/06/18 00:15:10;;;;;;;14.60;10.83;;;13.60;60.10;;;;;;2105709;28;20202;-66
2023/06/18 00:16:10;;;;;;;16.73;10.75;;;13.70;60.60;;;;;;2105855;28;20183;-65
2023/06/18 00:17:11;;;;;;;14.57;10.43;;;13.60;60.90;;;;;;2097181;28;20669;-66
2023/06/18 00:18:12;;;;;;;13.10;10.23;;;13.60;62.10;;;;;;2102431;28;20211;-66
2023/06/18 00:19:13;;;;;;;13.33;10.07;;;13.60;61.00;;;;;;2093476;28;20204;-66
2023/06/18 00:20:14;;;;;;;11.85;8.75;;;13.60;60.80;;;;;;2088957;28;20192;-66
2023/06/18 00:21:15;;;;;;;12.37;8.97;;;13.50;61.00;;;;;;2096556;28;20223;-66
2023/06/18 00:22:17;;;;;;;10.33;8.13;;;13.50;61.20;;;;;;2104788;28;20637;-66
2023/06/18 00:23:18;;;;;;;8.98;7.30;;;13.50;60.90;;;;;;2104068;28;20235;-66
2023/06/18 00:24:18;;;;;;;10.23;7.30;;;13.60;61.00;;;;;;2104205;28;20235;-66
2023/06/18 00:25:20;;;;;;;8.87;6.80;;;13.50;60.30;;;;;;2105040;28;20334;-66
2023/06/18 00:26:22;;;;;;;10.50;6.65;;;13.60;60.00;;;;;;2105610;28;20644;-66
2023/06/18 00:27:23;;;;;;;9.50;7.43;;;13.60;60.50;;;;;;2101756;28;20310;-66
2023/06/18 00:28:24;;;;;;;11.53;7.27;;;13.50;60.70;;;;;;2093090;28;20251;-67
2023/06/18 00:29:26;;;;;;;10.63;7.68;;;13.60;60.80;;;;;;2101422;28;20235;-66
2023/06/18 00:30:26;;;;;;;9.43;6.82;;;13.50;60.80;;;;;;2104667;28;20236;-66
2023/06/18 00:31:28;;;;;;;7.40;6.60;;;13.60;60.80;;;;;;2113107;28;20256;-66
2023/06/18 00:32:30;;;;;;;9.45;7.57;;;13.50;60.50;;;;;;2113810;28;20292;-67
2023/06/18 00:33:33;;;;;;;9.32;6.70;;;13.40;61.10;;;;;;2102325;28;20222;-67
2023/06/18 00:34:35;;;;;;;8.55;6.57;;;13.30;61.60;;;;;;2105320;28;20221;-66
2023/06/18 00:35:36;;;;;;;7.57;6.25;;;13.20;61.60;;;;;;2102100;28;20263;-66
2023/06/18 00:36:38;;;;;;;7.33;6.30;;;13.30;61.50;;;;;;2101696;28;20673;-65
2023/06/18 00:37:39;;;;;;;8.43;6.57;;;13.30;61.40;;;;;;2100620;28;20597;-66
2023/06/18 00:38:45;;;;;;;8.23;6.40;;;13.30;61.40;;;;;;2101075;28;20310;-69
2023/06/18 00:39:47;;;;;;;7.88;6.28;;;13.30;61.30;;;;;;2088116;28;20224;-67
2023/06/18 00:40:48;;;;;;;7.43;6.30;;;13.30;61.10;;;;;;2100629;28;20329;-67
2023/06/18 00:41:48;;;;;;;6.17;5.33;;;13.40;61.10;;;;;;2105665;28;20973;-66
2023/06/18 00:42:52;;;;;;;7.83;6.07;;;13.30;61.00;;;;;;2102995;28;20222;-67
2023/06/18 00:43:53;;;;;;;9.40;6.40;;;13.30;61.30;;;;;;2101987;28;20257;-66
2023/06/18 00:44:54;;;;;;;6.40;5.75;;;13.40;61.50;;;;;;2103161;28;20226;-67
2023/06/18 00:46:00;;;;;;;6.97;5.60;;;13.30;61.20;;;;;;2104740;28;20219;-67
2023/06/18 00:47:01;;;;;;;7.13;5.70;;;13.40;61.50;;;;;;2103444;28;20230;-67
2023/06/18 00:48:02;;;;;;;8.93;6.63;;;13.40;61.40;;;;;;2104446;28;20191;-66
2023/06/18 00:49:03;;;;;;;7.25;5.88;;;13.30;61.30;;;;;;2095299;28;20182;-67
2023/06/18 00:50:06;;;;;;;9.18;6.28;;;13.30;61.50;;;;;;2105015;28;20658;-66
2023/06/18 00:51:07;;;;;;;6.93;5.80;;;13.30;61.60;;;;;;2105018;28;20179;-67
2023/06/18 00:52:15;;;;;;;10.27;6.10;;;13.30;61.40;;;;;;2100632;28;20183;-66
2023/06/18 00:53:15;;;;;;;7.18;5.75;;;13.30;61.30;;;;;;2104993;28;20179;-66
2023/06/18 00:54:17;;;;;;;6.93;5.33;;;13.30;61.50;;;;;;2101156;28;20646;-66
2023/06/18 00:55:20;;;;;;;6.93;5.72;;;13.20;61.70;;;;;;2092396;28;20267;-67
2023/06/18 00:56:22;;;;;;;7.75;5.43;;;13.20;61.90;;;;;;2096501;28;20232;-67
2023/06/18 00:57:23;;;;;;;7.38;6.03;;;13.20;61.90;;;;;;2097601;28;20781;-66
2023/06/18 00:58:25;;;;;;;6.97;5.68;;;13.10;61.70;;;;;;2095679;28;20235;-66
2023/06/18 00:59:27;;;;;;;7.78;5.63;;;13.20;61.60;;;;;;2083776;28;20319;-66
2023/06/18 01:00:34;;;;;;;6.72;5.40;;;13.10;61.80;;;;;;2093020;28;20230;-66
2023/06/18 01:01:36;;;;;;;6.22;5.20;;;13.20;62.10;;;;;;2102841;28;20269;-66
2023/06/18 01:02:36;;;;;;;6.15;5.55;;;13.10;61.80;;;;;;2105434;28;20745;-66
2023/06/18 01:03:37;;;;;;;7.07;5.93;;;13.20;61.70;;;;;;2105811;28;20222;-67
2023/06/18 01:04:38;;;;;;;6.17;5.30;;;13.10;61.70;;;;;;2100852;28;20225;-66
2023/06/18 01:05:39;;;;;;;7.20;5.57;;;13.10;61.90;;;;;;2104565;28;20215;-66
2023/06/18 01:06:40;;;;;;;6.93;5.80;;;13.20;62.00;;;;;;2104371;28;20223;-66
2023/06/18 01:07:47;;;;;;;6.53;5.82;;;13.20;62.10;;;;;;2096551;28;20216;-66
2023/06/18 01:08:49;;;;;;;6.65;5.90;;;13.10;62.10;;;;;;2097789;28;20219;-66
2023/06/18 01:09:53;;;;;;;7.70;5.60;;;13.10;61.90;;;;;;2106116;28;20215;-66
2023/06/18 01:11:05;;;;;;;6.07;5.47;;;13.10;62.10;;;;;;2099094;28;20314;-66
2023/06/18 01:12:07;;;;;;;7.80;6.68;;;13.10;62.10;;;;;;2093604;28;20693;-67
2023/06/18 01:13:10;;;;;;;8.60;5.72;;;13.10;62.20;;;;;;2096175;28;20184;-67
2023/06/18 01:14:12;;;;;;;6.50;5.35;;;13.10;62.30;;;;;;2092605;28;20188;-66
2023/06/18 01:15:13;;;;;;;7.95;5.60;;;13.10;62.50;;;;;;2104169;28;20197;-66
2023/06/18 01:16:16;;;;;;;7.75;6.13;;;13.10;62.40;;;;;;2103862;28;20213;-66
2023/06/18 01:17:20;;;;;;;6.25;5.45;;;13.10;62.50;;;;;;2096790;28;20211;-67
2023/06/18 01:18:21;;;;;;;6.40;5.25;;;13.00;62.40;;;;;;2088883;28;20263;-66
2023/06/18 01:19:51;;;;;;;9.23;5.72;;;13.00;62.50;;;;;;2095969;28;20220;-66
2023/06/18 01:20:55;;;;;;;8.43;5.65;;;13.10;62.70;;;;;;2094757;28;20214;-67
2023/06/18 01:22:02;;;;;;;6.32;5.72;;;13.00;62.70;;;;;;2096833;28;20609;-66
2023/06/18 01:23:21;;;;;;;5.85;5.05;;;13.00;62.80;;;;;;2087493;28;20784;-68
2023/06/18 01:24:24;;;;;;;8.48;5.68;;;12.90;62.70;;;;;;2091660;28;20334;-66
2023/06/18 01:25:26;;;;;;;6.55;5.88;;;12.90;63.90;;;;;;2097337;28;20602;-66
2023/06/18 01:26:28;;;;;;;6.68;5.22;;;12.90;63.20;;;;;;2095291;28;20594;-66
2023/06/18 01:27:33;;;;;;;7.97;5.78;;;12.90;63.40;;;;;;2082530;28;20242;-67
2023/06/18 01:28:35;;;;;;;7.63;5.88;;;12.80;63.40;;;;;;2094778;28;20218;-65
2023/06/18 01:29:39;;;;;;;7.28;5.80;;;12.80;63.40;;;;;;2101652;28;20243;-66
2023/06/18 01:30:40;;;;;;;6.70;5.53;;;12.80;63.60;;;;;;2095440;28;20225;-66
2023/06/18 01:31:42;;;;;;;7.80;5.55;;;12.80;63.30;;;;;;2104627;28;20293;-67
2023/06/18 01:32:43;;;;;;;6.20;5.43;;;12.90;63.10;;;;;;2104008;28;20272;-67
2023/06/18 01:33:43;;;;;;;7.20;5.40;;;12.90;62.90;;;;;;2080034;28;20328;-67
2023/06/18 01:34:45;;;;;;;6.83;5.50;;;12.90;62.50;;;;;;2096693;28;20215;-66
2023/06/18 01:35:46;;;;;;;6.20;5.25;;;13.00;62.00;;;;;;2081618;28;20230;-66
2023/06/18 01:37:09;;;;;;;6.40;5.35;;;12.90;62.00;;;;;;2102044;28;20254;-66
2023/06/18 01:38:37;;;;;;;7.22;5.45;;;13.00;62.10;;;;;;2108189;28;20623;-65
2023/06/18 01:39:56;;;;;;;5.72;4.95;;;12.80;62.30;;;;;;2102089;28;20227;-66
2023/06/18 01:41:07;;;;;;;6.35;5.30;;;12.70;63.40;;;;;;2099278;28;20227;-65
2023/06/18 01:42:16;;;;;;;7.18;5.03;;;12.70;63.80;;;;;;2107126;28;20222;-65
2023/06/18 01:43:40;;;;;;;6.72;5.28;;;12.70;64.00;;;;;;2110200;28;20198;-66
2023/06/18 01:44:48;;;;;;;6.55;5.03;;;12.70;63.90;;;;;;2110587;28;20218;-66
2023/06/18 01:46:05;;;;;;;7.78;5.55;;;12.70;63.70;;;;;;2109098;28;20230;-66
2023/06/18 01:47:06;;;;;;;6.18;5.03;;;12.60;63.70;;;;;;2107308;28;20217;-66
2023/06/18 01:48:08;;;;;;;6.72;5.45;;;12.70;63.90;;;;;;2105126;28;20621;-66
2023/06/18 01:49:10;;;;;;;6.07;5.35;;;12.70;63.90;;;;;;2105025;28;20191;-66
2023/06/18 01:50:13;;;;;;;5.95;5.18;;;12.80;64.00;;;;;;2103640;28;20183;-67
2023/06/18 01:51:18;;;;;;;6.68;5.63;;;12.80;63.80;;;;;;2095097;28;20243;-66
2023/06/18 01:52:19;;;;;;;6.55;5.00;;;12.80;63.80;;;;;;2096093;28;20289;-67
2023/06/18 01:53:24;;;;;;;7.50;5.45;;;12.80;64.00;;;;;;2097538;28;20227;-66
2023/06/18 01:54:26;;;;;;;6.43;5.35;;;12.80;64.20;;;;;;2097502;28;20693;-66
2023/06/18 01:55:33;;;;;;;7.25;5.65;;;12.80;64.10;;;;;;2102287;28;20226;-66
2023/06/18 01:56:34;;;;;;;6.32;5.30;;;12.80;65.20;;;;;;2088583;28;20219;-66
2023/06/18 01:57:36;;;;;;;5.93;5.18;;;12.80;63.80;;;;;;2089580;28;20213;-66
2023/06/18 01:58:42;;;;;;;6.80;5.22;;;12.80;63.70;;;;;;2102823;28;20291;-66
2023/06/18 01:59:43;;;;;;;6.20;4.80;;;12.80;63.60;;;;;;2096292;28;20223;-67
2023/06/18 02:00:45;;;;;;;6.32;5.53;;;12.80;63.60;;;;;;2096606;28;20219;-66
2023/06/18 02:01:46;;;;;;;7.25;5.05;;;12.80;63.60;;;;;;2096503;28;20245;-66
2023/06/18 02:02:49;;;;;;;5.33;4.80;;;12.80;63.80;;;;;;2104632;28;20584;-66
2023/06/18 02:03:50;;;;;;;6.50;5.63;;;12.80;63.70;;;;;;2104047;28;20229;-66
2023/06/18 02:04:51;;;;;;;6.13;5.47;;;12.80;63.50;;;;;;2096025;28;20227;-66
2023/06/18 02:05:52;;;;;;;5.97;5.27;;;12.70;63.50;;;;;;2102538;28;20302;-66
2023/06/18 02:06:52;;;;;;;8.27;5.40;;;12.70;63.70;;;;;;2104904;28;20231;-66
2023/06/18 02:07:54;;;;;;;6.40;5.57;;;12.70;63.80;;;;;;2104039;28;20255;-66
2023/06/18 02:08:55;;;;;;;7.28;5.40;;;12.70;63.90;;;;;;2103324;28;20689;-67
2023/06/18 02:09:55;;;;;;;6.43;5.43;;;12.70;63.90;;;;;;2103366;28;20218;-66
2023/06/18 02:10:56;;;;;;;7.20;5.50;;;12.70;64.20;;;;;;2103145;28;20218;-66
2023/06/18 02:11:57;;;;;;;5.80;4.80;;;12.70;64.20;;;;;;2104412;28;20239;-66
2023/06/18 02:12:58;;;;;;;7.10;5.57;;;12.70;64.20;;;;;;2103658;28;20233;-67
2023/06/18 02:13:58;;;;;;;5.57;5.00;;;12.60;64.30;;;;;;2104683;28;20302;-68
2023/06/18 02:14:59;;;;;;;9.73;5.28;;;12.60;64.30;;;;;;2104630;28;20229;-67
2023/06/18 02:16:00;;;;;;;6.47;5.13;;;12.60;64.50;;;;;;2103982;28;20183;-66
2023/06/18 02:17:01;;;;;;;6.53;5.67;;;12.60;64.60;;;;;;2104506;28;20178;-65
2023/06/18 02:18:03;;;;;;;7.80;5.15;;;12.60;64.60;;;;;;2104008;28;20211;-66
2023/06/18 02:19:06;;;;;;;5.53;4.93;;;12.60;64.30;;;;;;2103508;28;20191;-67
2023/06/18 02:20:09;;;;;;;6.22;5.40;;;12.70;64.10;;;;;;2094607;28;20191;-66
2023/06/18 02:21:09;;;;;;;6.63;5.13;;;12.60;64.20;;;;;;2084595;28;20220;-66
2023/06/18 02:22:10;;;;;;;5.80;5.10;;;12.60;64.00;;;;;;2095232;28;20286;-66
2023/06/18 02:23:11;;;;;;;8.40;5.60;;;12.70;64.90;;;;;;2096695;28;20202;-66
2023/06/18 02:24:12;;;;;;;6.20;5.00;;;12.60;63.60;;;;;;2089898;28;20732;-66
2023/06/18 02:25:18;;;;;;;5.82;5.00;;;12.70;63.90;;;;;;2090176;28;20192;-66
2023/06/18 02:26:19;;;;;;;6.22;4.75;;;12.70;64.10;;;;;;2089210;28;20236;-66
2023/06/18 02:27:20;;;;;;;5.73;4.60;;;12.70;64.30;;;;;;2093503;28;20261;-66
2023/06/18 02:28:20;;;;;;;6.47;4.90;;;12.60;64.80;;;;;;2098258;28;20289;-66
2023/06/18 02:29:21;;;;;;;6.77;5.30;;;12.60;64.70;;;;;;2103566;28;20231;-66
2023/06/18 02:30:22;;;;;;;7.10;5.07;;;12.60;64.60;;;;;;2097937;28;20597;-66
2023/06/18 02:31:22;;;;;;;8.50;5.07;;;12.60;64.70;;;;;;2092906;28;20220;-66
2023/06/18 02:32:23;;;;;;;7.73;4.90;;;12.60;64.80;;;;;;2095790;28;20231;-66
2023/06/18 02:33:25;;;;;;;6.32;5.07;;;12.60;64.90;;;;;;2092141;28;20726;-66
2023/06/18 02:34:27;;;;;;;6.40;5.35;;;12.50;65.00;;;;;;2106493;28;20355;-66
2023/06/18 02:35:28;;;;;;;5.75;4.97;;;12.50;65.10;;;;;;2103606;28;20314;-67
2023/06/18 02:36:32;;;;;;;6.85;5.10;;;12.60;65.20;;;;;;2102703;28;20218;-66
2023/06/18 02:37:32;;;;;;;7.35;5.45;;;12.60;65.40;;;;;;2096296;28;20216;-66
2023/06/18 02:38:34;;;;;;;6.10;4.97;;;12.50;65.50;;;;;;2093347;28;20302;-66
2023/06/18 02:39:34;;;;;;;6.57;5.32;;;12.50;65.30;;;;;;2104120;28;20271;-67
2023/06/18 02:40:36;;;;;;;6.90;5.53;;;12.50;65.60;;;;;;2100397;28;20292;-66
2023/06/18 02:41:36;;;;;;;6.00;5.40;;;12.60;65.60;;;;;;2104629;28;20651;-66
2023/06/18 02:42:46;;;;;;;7.00;5.43;;;12.50;65.60;;;;;;2095341;28;20285;-66
2023/06/18 02:43:50;;;;;;;7.05;5.30;;;12.50;65.40;;;;;;2089631;28;20220;-65
2023/06/18 02:44:51;;;;;;;6.25;5.22;;;12.50;65.40;;;;;;2100841;28;20219;-65
2023/06/18 02:45:52;;;;;;;6.97;5.50;;;12.50;65.30;;;;;;2102222;28;20237;-66
2023/06/18 02:46:54;;;;;;;6.23;5.33;;;12.50;65.40;;;;;;2104086;28;20280;-66
2023/06/18 02:47:54;;;;;;;7.55;5.43;;;12.60;65.40;;;;;;2104937;28;20221;-66
2023/06/18 02:48:55;;;;;;;7.20;4.57;;;12.50;65.20;;;;;;2102736;28;20222;-65
2023/06/18 02:49:56;;;;;;;6.47;5.47;;;12.50;65.20;;;;;;2096279;28;20273;-66
2023/06/18 02:50:57;;;;;;;6.87;5.43;;;12.50;65.70;;;;;;2104594;28;20206;-66
2023/06/18 02:51:57;;;;;;;6.83;6.07;;;12.50;65.60;;;;;;2077616;28;20869;-69
2023/06/18 02:52:58;;;;;;;7.50;5.30;;;12.50;66.00;;;;;;2087343;28;20184;-68
2023/06/18 02:53:59;;;;;;;8.90;5.57;;;12.40;65.50;;;;;;2095068;28;20280;-66
2023/06/18 02:55:00;;;;;;;7.43;5.63;;;12.50;65.90;;;;;;2095694;28;20630;-66
2023/06/18 02:56:01;;;;;;;7.45;5.18;;;12.40;65.80;;;;;;2100777;28;20617;-67
2023/06/18 02:57:02;;;;;;;8.07;5.93;;;12.40;65.90;;;;;;2099964;28;20213;-66
2023/06/18 02:58:03;;;;;;;7.43;5.30;;;12.50;65.70;;;;;;2104689;28;20207;-67
2023/06/18 02:59:05;;;;;;;7.72;5.38;;;12.50;65.40;;;;;;2108077;28;20191;-66
2023/06/18 03:00:10;;;;;;;7.13;5.65;;;12.50;65.50;;;;;;2104734;28;20190;-66
2023/06/18 03:01:11;;;;;;;6.15;5.35;;;12.50;65.60;;;;;;2098955;28;20206;-66
2023/06/18 03:02:13;;;;;;;6.57;5.07;;;12.40;65.40;;;;;;2102100;28;20190;-66
2023/06/18 03:03:14;;;;;;;6.65;5.03;;;12.50;65.40;;;;;;2103525;28;20186;-66
2023/06/18 03:04:15;;;;;;;8.13;5.45;;;12.50;65.50;;;;;;2095992;28;20250;-66
2023/06/18 03:05:15;;;;;;;7.00;5.60;;;12.50;65.40;;;;;;2095673;28;20195;-66
2023/06/18 03:06:16;;;;;;;7.03;5.63;;;12.50;65.30;;;;;;2092232;28;20176;-66
2023/06/18 03:07:17;;;;;;;7.57;5.45;;;12.50;65.20;;;;;;2100137;28;22372;-67
2023/06/18 03:08:19;;;;;;;6.07;4.93;;;12.50;65.60;;;;;;2104287;28;20327;-66
2023/06/18 03:09:20;;;;;;;6.22;4.88;;;12.50;65.80;;;;;;2095476;28;20245;-66
2023/06/18 03:10:21;;;;;;;5.43;4.77;;;12.40;65.90;;;;;;2104243;28;20687;-67
2023/06/18 03:11:22;;;;;;;5.87;5.27;;;12.40;66.10;;;;;;2102183;28;20242;-66
2023/06/18 03:12:24;;;;;;;6.07;5.43;;;12.40;66.10;;;;;;2101595;28;20241;-66
2023/06/18 03:13:25;;;;;;;5.72;5.07;;;12.40;66.10;;;;;;2101101;28;20254;-66
2023/06/18 03:14:26;;;;;;;6.82;4.95;;;12.40;66.20;;;;;;2101176;28;20226;-67
2023/06/18 03:15:27;;;;;;;5.77;5.17;;;12.40;65.90;;;;;;2114642;27;20221;-66
2023/06/18 03:16:28;;;;;;;5.13;4.63;;;12.40;65.80;;;;;;2115836;27;20252;-66
2023/06/18 03:17:29;;;;;;;6.85;5.60;;;12.40;65.60;;;;;;2100688;28;20218;-67
2023/06/18 03:18:30;;;;;;;5.70;5.10;;;12.40;65.60;;;;;;2103652;28;20585;-66
2023/06/18 03:19:30;;;;;;;5.90;5.03;;;12.40;65.80;;;;;;2095193;28;20242;-67
2023/06/18 03:20:32;;;;;;;7.60;5.07;;;12.40;65.70;;;;;;2095968;28;20276;-66
2023/06/18 03:21:33;;;;;;;7.15;5.22;;;12.40;65.50;;;;;;2104015;28;20222;-67
2023/06/18 03:22:33;;;;;;;6.50;5.10;;;12.40;65.40;;;;;;2095795;28;20216;-67
2023/06/18 03:23:34;;;;;;;5.97;5.27;;;12.40;65.50;;;;;;2095792;28;20689;-66
2023/06/18 03:24:37;;;;;;;5.43;4.83;;;12.30;65.90;;;;;;2104061;28;20213;-66
2023/06/18 03:25:37;;;;;;;7.55;5.25;;;12.30;66.50;;;;;;2095693;28;20305;-66
2023/06/18 03:26:38;;;;;;;6.33;5.30;;;12.30;66.60;;;;;;2101556;28;20234;-66
2023/06/18 03:27:42;;;;;;;5.67;5.00;;;12.30;66.30;;;;;;2103992;28;20226;-70
2023/06/18 03:28:42;;;;;;;6.82;4.90;;;12.30;66.40;;;;;;2108110;28;20671;-67
2023/06/18 03:29:43;;;;;;;6.30;5.20;;;12.30;66.40;;;;;;2100730;28;20278;-66
2023/06/18 03:30:44;;;;;;;6.00;5.30;;;12.30;66.50;;;;;;2101845;28;20214;-67
2023/06/18 03:31:46;;;;;;;7.17;5.47;;;12.20;66.60;;;;;;2109090;28;20209;-65
2023/06/18 03:32:47;;;;;;;5.53;4.70;;;12.20;66.70;;;;;;2098386;28;20254;-66
2023/06/18 03:33:50;;;;;;;6.07;5.28;;;12.20;66.60;;;;;;2095329;28;20742;-67
2023/06/18 03:34:51;;;;;;;6.82;5.45;;;12.30;66.80;;;;;;2101815;28;20215;-67
2023/06/18 03:35:52;;;;;;;7.70;5.47;;;12.30;66.30;;;;;;2111675;28;20261;-66
2023/06/18 03:36:53;;;;;;;6.97;5.93;;;12.30;66.40;;;;;;2104198;28;20471;-67
2023/06/18 03:37:54;;;;;;;6.30;5.07;;;12.30;65.90;;;;;;2103907;28;20223;-65
2023/06/18 03:38:56;;;;;;;7.68;5.53;;;12.30;65.80;;;;;;2103364;28;20271;-67
2023/06/18 03:39:58;;;;;;;5.82;5.20;;;12.30;65.60;;;;;;2086864;28;20694;-66
2023/06/18 03:40:59;;;;;;;7.43;5.35;;;12.40;65.40;;;;;;2093736;28;20233;-66
2023/06/18 03:42:00;;;;;;;6.10;4.82;;;12.40;65.10;;;;;;2101779;28;20185;-66
2023/06/18 03:43:01;;;;;;;5.63;4.80;;;12.30;66.10;;;;;;2100991;28;20373;-66
2023/06/18 03:44:04;;;;;;;7.23;5.43;;;12.40;66.20;;;;;;2100106;28;20216;-70
2023/06/18 03:45:06;;;;;;;7.60;5.18;;;12.40;66.10;;;;;;2103415;28;20183;-66
2023/06/18 03:46:07;;;;;;;7.40;5.50;;;12.30;66.00;;;;;;2103674;28;20183;-66
2023/06/18 03:47:08;;;;;;;6.27;5.50;;;12.30;65.80;;;;;;2101382;28;20881;-66
2023/06/18 03:48:09;;;;;;;5.60;4.80;;;12.30;65.70;;;;;;2103575;28;20206;-67
2023/06/18 03:49:10;;;;;;;6.10;5.07;;;12.30;65.60;;;;;;2103278;28;20648;-65
2023/06/18 03:50:11;;;;;;;7.37;5.33;;;12.40;65.50;;;;;;2095626;28;20183;-66
2023/06/18 03:51:11;;;;;;;7.27;5.00;;;12.30;66.20;;;;;;2095127;28;20562;-66
2023/06/18 03:52:12;;;;;;;5.80;5.17;;;12.30;66.30;;;;;;2091312;28;20243;-66
2023/06/18 03:53:13;;;;;;;6.33;4.97;;;12.20;66.40;;;;;;2099527;28;20235;-66
2023/06/18 03:54:14;;;;;;;7.22;5.38;;;12.20;66.70;;;;;;2104562;28;20785;-66
2023/06/18 03:55:15;;;;;;;5.77;5.13;;;12.30;66.70;;;;;;2110713;28;20183;-66
2023/06/18 03:56:16;;;;;;;7.77;5.43;;;12.30;66.80;;;;;;2102619;28;20190;-66
2023/06/18 03:57:17;;;;;;;6.47;5.28;;;12.30;66.60;;;;;;2101863;28;20237;-66
2023/06/18 03:58:19;;;;;;;6.20;5.03;;;12.30;66.60;;;;;;2108934;28;20246;-65
2023/06/18 03:59:20;;;;;;;5.18;4.50;;;12.40;66.60;;;;;;2108271;28;21196;-66
2023/06/18 04:00:21;;;;;;;8.00;5.85;;;12.30;66.20;;;;;;2100169;28;20223;-66
2023/06/18 04:01:22;;;;;;;6.23;5.30;;;12.40;66.10;;;;;;2103915;28;20286;-66
2023/06/18 04:02:22;;;;;;;5.40;4.70;;;12.40;66.30;;;;;;2095449;28;20230;-65
2023/06/18 04:03:24;;;;;;;7.03;5.07;;;12.40;66.80;;;;;;2078806;28;20236;-66
2023/06/18 04:04:25;;;;;;;5.35;4.85;;;12.40;66.60;;;;;;2087517;28;20792;-66
2023/06/18 04:05:26;;;;;;;5.70;5.05;;;12.50;66.50;;;;;;2095728;28;20233;-66
2023/06/18 04:06:27;;;;;;;7.47;5.37;;;12.50;67.40;;;;;;2100599;28;20276;-66
2023/06/18 04:07:28;;;;;;;6.72;5.28;;;12.50;66.10;;;;;;2103366;28;20322;-66
2023/06/18 04:08:30;;;;;;;5.60;5.00;;;12.50;66.10;;;;;;2103934;28;20223;-66
2023/06/18 04:09:31;;;;;;;6.53;4.90;;;12.50;66.60;;;;;;2100145;28;20848;-66
2023/06/18 04:10:31;;;;;;;5.40;4.38;;;12.50;66.60;;;;;;2103904;28;20314;-66
2023/06/18 04:11:32;;;;;;;6.47;4.63;;;12.40;66.90;;;;;;2103853;28;20245;-66
2023/06/18 04:12:33;;;;;;;5.40;4.60;;;12.40;66.90;;;;;;2095414;28;20223;-66
2023/06/18 04:13:35;;;;;;;5.73;5.13;;;12.40;66.80;;;;;;2087174;28;20754;-65
2023/06/18 04:14:36;;;;;;;6.13;4.72;;;12.50;67.90;;;;;;2095773;28;20230;-65
2023/06/18 04:15:37;;;;;;;5.77;5.10;;;12.50;66.70;;;;;;2091464;28;20215;-66
2023/06/18 04:16:38;;;;;;;6.47;4.83;;;12.50;67.10;;;;;;2086403;28;20982;-67
2023/06/18 04:17:43;;;;;;;6.40;5.30;;;12.50;67.00;;;;;;2102446;28;20574;-66
2023/06/18 04:18:44;;;;;;;5.97;4.70;;;12.50;67.20;;;;;;2101694;28;20229;-66
2023/06/18 04:19:44;;;;;;;5.85;4.72;;;12.50;67.10;;;;;;2084773;28;20220;-66
2023/06/18 04:20:45;;;;;;;6.73;4.63;;;12.50;67.20;;;;;;2079010;28;20217;-66
2023/06/18 04:21:46;;;;;;;7.97;5.03;;;12.50;66.70;;;;;;2095286;28;20225;-66
2023/06/18 04:22:46;;;;;;;6.47;5.13;;;12.50;66.90;;;;;;2103267;28;20263;-66
2023/06/18 04:23:47;;;;;;;5.63;4.90;;;12.50;66.70;;;;;;2103563;28;20271;-66
2023/06/18 04:24:48;;;;;;;7.33;5.30;;;12.50;66.80;;;;;;2103679;28;20598;-66
2023/06/18 04:25:49;;;;;;;5.72;4.70;;;12.50;66.60;;;;;;2102682;28;20300;-66
2023/06/18 04:26:50;;;;;;;6.50;4.70;;;12.60;66.60;;;;;;2101735;28;20708;-66
2023/06/18 04:27:52;;;;;;;6.77;4.67;;;12.60;66.30;;;;;;2092714;28;20216;-65
2023/06/18 04:28:53;;;;;;;5.68;5.03;;;12.60;66.30;;;;;;2083642;28;20228;-66
2023/06/18 04:29:53;;;;;;;7.82;5.10;;;12.60;66.00;;;;;;2101834;28;20215;-66
2023/06/18 04:30:54;;;;;;;7.20;4.97;;;12.70;66.00;;;;;;2112443;28;20248;-66
2023/06/18 04:31:55;;;;;;;6.57;5.20;;;12.70;65.40;;;;;;2094984;28;20252;-65
2023/06/18 04:32:56;;;;;;;7.70;5.00;;;12.80;65.30;;;;;;2094264;28;20224;-66
2023/06/18 04:33:56;;;;;;;7.07;4.80;;;12.80;64.80;;;;;;2102240;28;20233;-66
2023/06/18 04:34:57;;;;;;;6.63;5.27;;;12.80;65.10;;;;;;2091641;28;20242;-66
2023/06/18 04:35:58;;;;;;;6.57;4.97;;;12.80;65.90;;;;;;2090377;28;20212;-66
2023/06/18 04:36:59;;;;;;;6.13;5.37;;;12.80;65.10;;;;;;2102051;28;20219;-65
2023/06/18 04:38:00;;;;;;;5.37;4.80;;;12.80;65.10;;;;;;2103070;28;20213;-66
2023/06/18 04:39:01;;;;;;;6.45;4.68;;;12.80;65.40;;;;;;2103522;28;20620;-66
2023/06/18 04:40:07;;;;;;;5.88;4.82;;;12.80;65.60;;;;;;2102088;28;20226;-66
2023/06/18 04:41:08;;;;;;;5.35;4.85;;;12.90;65.20;;;;;;2076549;28;20216;-65
2023/06/18 04:42:09;;;;;;;6.75;5.07;;;12.90;65.20;;;;;;2085219;28;20682;-65
2023/06/18 04:43:13;;;;;;;6.93;4.90;;;12.90;65.50;;;;;;2094767;28;20219;-65
2023/06/18 04:44:14;;;;;;;5.32;4.70;;;13.00;65.40;;;;;;2099898;28;20187;-67
2023/06/18 04:45:15;;;;;;;5.93;5.30;;;13.00;65.30;;;;;;2103399;28;20640;-66
2023/06/18 04:46:15;;;;;;;6.03;4.87;;;12.90;65.90;;;;;;2103501;28;20179;-65
2023/06/18 04:47:16;;;;;;;5.90;5.23;;;13.00;65.50;;;;;;2101779;28;20187;-66
2023/06/18 04:48:18;;;;;;;8.80;6.50;;;13.00;65.50;;;;;;2103815;28;20211;-66
2023/06/18 04:49:18;;;;;;;8.55;5.55;;;13.00;66.20;;;;;;2095401;28;20239;-66
2023/06/18 04:50:21;;;;;;;6.20;5.17;;;13.10;66.10;;;;;;2087303;28;20942;-66
2023/06/18 04:51:21;;;;;;;8.52;6.22;;;13.00;66.30;;;;;;2095859;28;20756;-65
2023/06/18 04:52:22;;;;;;;6.57;5.60;;;13.10;66.40;;;;;;2104877;28;20223;-65
2023/06/18 04:53:23;;;;;;;6.35;5.22;;;13.10;66.60;;;;;;2104766;28;20223;-66
2023/06/18 04:54:24;;;;;;;6.17;5.57;;;13.10;66.60;;;;;;2104829;28;20287;-66
2023/06/18 04:55:25;;;;;;;7.22;5.22;;;13.20;66.80;;;;;;2104616;28;20241;-66
2023/06/18 04:56:26;;;;;;;7.30;5.50;;;13.20;66.60;;;;;;2102018;28;20258;-65
2023/06/18 04:57:28;;;;;;;6.70;5.20;;;13.20;66.30;;;;;;2102209;28;20231;-66
2023/06/18 04:58:34;;;;;;;5.43;4.93;;;13.30;66.40;;;;;;2093593;28;20223;-66
2023/06/18 04:59:36;;;;;;;7.65;5.07;;;13.30;66.40;;;;;;2093506;28;20227;-66
2023/06/18 05:00:37;;;;;;;6.28;4.97;;;13.30;66.10;;;;;;2097223;28;20269;-66
2023/06/18 05:01:38;;;;;;;5.87;4.80;;;13.40;64.90;;;;;;2093814;28;20321;-66
2023/06/18 05:02:38;;;;;;;6.80;5.00;;;13.40;64.10;;;;;;2105487;28;20361;-66
2023/06/18 05:03:39;;;;;;;6.17;4.80;;;13.50;64.00;;;;;;2104714;28;20345;-66
2023/06/18 05:04:40;;;;;;;6.37;5.13;;;13.50;63.40;;;;;;2101661;28;20684;-65
2023/06/18 05:05:41;;;;;;;6.28;4.95;;;13.40;63.40;;;;;;2101348;28;20303;-66
2023/06/18 05:06:42;;;;;;;6.50;4.67;;;13.50;63.70;;;;;;2096543;28;20709;-66
2023/06/18 05:07:43;;;;;;;6.13;4.93;;;13.50;63.90;;;;;;2104675;28;20272;-66
2023/06/18 05:08:46;;;;;;;7.18;5.25;;;13.60;63.70;;;;;;2105442;28;20218;-66
2023/06/18 05:09:47;;;;;;;5.80;4.90;;;13.60;63.20;;;;;;2103619;28;20268;-66
2023/06/18 05:10:49;;;;;;;6.53;4.93;;;13.70;62.20;;;;;;2104461;28;20718;-66
2023/06/18 05:11:50;;;;;;;5.65;5.05;;;13.80;62.40;;;;;;2101695;28;20214;-66
2023/06/18 05:12:51;;;;;;;5.30;4.57;;;13.80;62.40;;;;;;2102207;28;20297;-66
2023/06/18 05:13:51;;;;;;;5.30;4.40;;;13.80;62.10;;;;;;2104648;28;20211;-66
2023/06/18 05:14:52;;;;;;;6.13;4.80;;;13.90;60.30;;;;;;2105859;28;20587;-66
2023/06/18 05:15:53;;;;;;;6.10;5.03;;;14.00;59.60;;;;;;2104781;28;20590;-66
2023/06/18 05:16:54;;;;;;;6.20;4.73;;;14.00;59.20;;;;;;2104236;28;20214;-65
2023/06/18 05:17:55;;;;;;;7.82;5.18;;;14.00;60.10;;;;;;2088010;28;20723;-66
2023/06/18 05:18:56;;;;;;;6.47;4.43;;;14.00;59.50;;;;;;2095546;28;20276;-66
2023/06/18 05:19:56;;;;;;;6.00;5.07;;;14.00;60.50;;;;;;2105290;28;20218;-66
2023/06/18 05:20:57;;;;;;;6.13;4.83;;;14.00;61.80;;;;;;2103036;28;20230;-69
2023/06/18 05:21:58;;;;;;;7.53;5.10;;;14.00;62.00;;;;;;2103820;28;20213;-66
2023/06/18 05:22:59;;;;;;;6.13;4.77;;;14.00;61.70;;;;;;2104162;28;20207;-66